Time;durP1;ratioP1;P1;durP2;ratioP2;P2;SDS_P1;SDS_P2;PMS_P1;PMS_P2;Temp;Humidity;BMP_temperature;BMP_pressure;BME280_temperature;BME280_humidity;BME280_pressure;Samples;Min_cycle;Max_cycle;Signal;HPM_P1;HPM_P2
2021/04/29 00:00:42;;;;;;;11.52;9.60;;;11.10;99.90;;;;;;5053809;28;20184;-68
2021/04/29 00:03:10;;;;;;;12.15;9.10;;;11.10;99.90;;;;;;5053006;28;20683;-69
2021/04/29 00:05:38;;;;;;;14.10;8.18;;;11.10;99.90;;;;;;5052480;28;20195;-66
2021/04/29 00:08:05;;;;;;;10.35;9.18;;;11.10;99.90;;;;;;5053324;28;20282;-67
2021/04/29 00:10:34;;;;;;;16.42;9.85;;;11.20;99.90;;;;;;5053093;28;20188;-67
2021/04/29 00:13:01;;;;;;;10.68;8.10;;;11.10;99.90;;;;;;5053150;28;20212;-67
2021/04/29 00:15:28;;;;;;;12.98;9.27;;;11.10;99.90;;;;;;5053089;28;20188;-66
2021/04/29 00:17:55;;;;;;;19.08;8.80;;;11.20;99.90;;;;;;5053003;28;20224;-66
2021/04/29 00:20:24;;;;;;;13.77;8.48;;;11.10;99.90;;;;;;5053258;28;20173;-66
2021/04/29 00:22:52;;;;;;;15.15;9.65;;;11.20;99.90;;;;;;5053386;28;20195;-66
2021/04/29 00:25:20;;;;;;;11.23;8.90;;;11.20;99.90;;;;;;5052877;28;20200;-65
2021/04/29 00:27:47;;;;;;;13.80;8.95;;;11.10;99.90;;;;;;5052781;28;20300;-68
2021/04/29 00:30:15;;;;;;;13.23;9.90;;;11.10;99.90;;;;;;5052901;28;20208;-66
2021/04/29 00:32:42;;;;;;;12.98;9.10;;;11.10;99.90;;;;;;5052726;28;20287;-66
2021/04/29 00:35:11;;;;;;;11.55;8.95;;;11.00;99.90;;;;;;5062373;22;20274;-68
2021/04/29 00:37:38;;;;;;;10.23;9.15;;;11.00;99.90;;;;;;5032490;28;20209;-69
2021/04/29 00:40:08;;;;;;;17.50;9.13;;;11.00;99.90;;;;;;5016484;28;20190;-68
2021/04/29 00:42:36;;;;;;;10.60;9.50;;;11.00;99.90;;;;;;5033491;28;20181;-69
2021/04/29 00:45:06;;;;;;;13.75;10.48;;;10.90;99.90;;;;;;5033451;28;20592;-69
2021/04/29 00:47:34;;;;;;;11.23;8.45;;;10.90;99.90;;;;;;5033272;28;20772;-70
2021/04/29 00:50:02;;;;;;;13.00;9.70;;;11.00;99.90;;;;;;5033725;28;20269;-69
2021/04/29 00:52:29;;;;;;;11.32;8.68;;;11.00;99.90;;;;;;5031776;28;20776;-69
2021/04/29 00:54:57;;;;;;;12.43;9.38;;;10.90;99.90;;;;;;5032224;28;20598;-70
2021/04/29 00:57:25;;;;;;;17.98;9.93;;;10.90;99.90;;;;;;5032532;28;20197;-69
2021/04/29 00:59:53;;;;;;;16.88;9.60;;;11.00;99.90;;;;;;5032205;28;20194;-69
2021/04/29 01:02:21;;;;;;;8.70;7.80;;;11.00;99.90;;;;;;5031273;28;20189;-69
2021/04/29 01:04:54;;;;;;;14.68;9.68;;;11.00;99.90;;;;;;5032270;28;20272;-68
2021/04/29 01:07:24;;;;;;;12.45;9.55;;;10.90;99.90;;;;;;5032618;28;20287;-69
2021/04/29 01:09:55;;;;;;;9.45;8.10;;;10.90;99.90;;;;;;5031919;28;20186;-68
2021/04/29 01:12:29;;;;;;;11.48;9.13;;;10.90;99.90;;;;;;5031005;28;20255;-68
2021/04/29 01:14:57;;;;;;;10.55;9.45;;;11.00;99.90;;;;;;5031340;28;20189;-67
2021/04/29 01:17:25;;;;;;;11.65;9.95;;;11.00;99.90;;;;;;5031636;28;20193;-69
2021/04/29 01:19:57;;;;;;;17.73;10.23;;;11.00;99.90;;;;;;5031864;28;20189;-68
2021/04/29 01:22:24;;;;;;;14.70;10.98;;;10.90;99.90;;;;;;5031219;28;20617;-68
2021/04/29 01:24:58;;;;;;;14.15;10.35;;;10.90;99.90;;;;;;5031720;28;20657;-68
2021/04/29 01:27:28;;;;;;;13.70;10.73;;;10.90;99.90;;;;;;5031405;28;20173;-69
2021/04/29 01:29:55;;;;;;;11.50;9.50;;;10.90;99.90;;;;;;5031384;28;20664;-68
2021/04/29 01:32:22;;;;;;;12.07;7.90;;;10.90;99.90;;;;;;5030721;28;20270;-68
2021/04/29 01:34:50;;;;;;;14.23;10.55;;;10.90;99.90;;;;;;5031021;28;20186;-68
2021/04/29 01:37:18;;;;;;;19.73;10.00;;;10.90;99.90;;;;;;5031453;28;20689;-68
2021/04/29 01:39:45;;;;;;;17.73;12.00;;;10.90;99.90;;;;;;5030184;28;20440;-68
2021/04/29 01:42:13;;;;;;;15.77;9.88;;;10.90;99.90;;;;;;5030038;28;20185;-70
2021/04/29 01:44:41;;;;;;;13.45;10.38;;;10.90;99.90;;;;;;5031580;28;20280;-69
2021/04/29 01:47:09;;;;;;;12.32;10.40;;;10.80;99.90;;;;;;5050730;28;20195;-68
2021/04/29 01:49:36;;;;;;;14.75;10.15;;;10.80;99.90;;;;;;5051094;28;20184;-69
2021/04/29 01:52:06;;;;;;;11.95;9.10;;;10.80;99.90;;;;;;5050482;28;20196;-67
2021/04/29 01:54:37;;;;;;;21.15;10.65;;;10.80;99.90;;;;;;5046069;28;20197;-68
2021/04/29 01:57:04;;;;;;;10.90;8.75;;;10.80;99.90;;;;;;5031145;28;20249;-68
2021/04/29 01:59:32;;;;;;;8.02;6.88;;;10.80;99.90;;;;;;5030106;28;20574;-69
2021/04/29 02:02:00;;;;;;;8.88;7.53;;;10.80;99.90;;;;;;5031566;28;20197;-69
2021/04/29 02:04:28;;;;;;;12.40;9.35;;;10.80;99.90;;;;;;5031843;28;20211;-69
2021/04/29 02:06:56;;;;;;;9.43;8.48;;;10.70;99.90;;;;;;5030017;28;20201;-69
2021/04/29 02:09:23;;;;;;;13.38;8.48;;;10.70;99.90;;;;;;5031566;28;20211;-68
2021/04/29 02:11:55;;;;;;;12.60;8.98;;;10.80;99.90;;;;;;5032092;28;20204;-68
2021/04/29 02:14:40;;;;;;;12.60;8.07;;;10.80;99.90;;;;;;5031967;28;20194;-69
2021/04/29 02:17:13;;;;;;;7.95;6.93;;;10.90;99.90;;;;;;5031163;28;20721;-68
2021/04/29 02:19:42;;;;;;;13.88;8.07;;;10.90;99.90;;;;;;5031245;28;20200;-69
2021/04/29 02:22:11;;;;;;;10.13;8.63;;;10.90;99.90;;;;;;5031591;28;20192;-68
2021/04/29 02:24:39;;;;;;;9.10;8.30;;;10.90;99.90;;;;;;5031539;28;20178;-68
2021/04/29 02:27:08;;;;;;;8.65;7.75;;;11.00;99.90;;;;;;5030187;28;20669;-69
2021/04/29 02:29:36;;;;;;;11.02;8.52;;;11.00;99.90;;;;;;5031459;28;20713;-69
2021/04/29 02:32:04;;;;;;;10.70;7.82;;;11.00;99.90;;;;;;5030750;28;20682;-68
2021/04/29 02:34:34;;;;;;;10.13;7.75;;;11.10;99.90;;;;;;5030448;28;20606;-68
2021/04/29 02:37:01;;;;;;;10.95;7.30;;;11.10;99.90;;;;;;5030325;28;20212;-68
2021/04/29 02:39:31;;;;;;;9.65;7.78;;;11.00;99.90;;;;;;5030822;28;20209;-69
2021/04/29 02:41:58;;;;;;;10.75;8.80;;;11.00;99.90;;;;;;5029015;28;20216;-68
2021/04/29 02:44:27;;;;;;;12.38;7.35;;;11.00;99.90;;;;;;5030588;28;20189;-68
2021/04/29 02:46:54;;;;;;;8.95;7.50;;;11.00;99.90;;;;;;5030608;28;20182;-69
2021/04/29 02:49:23;;;;;;;9.88;6.90;;;11.00;99.90;;;;;;5030205;28;20287;-69
2021/04/29 02:51:52;;;;;;;9.32;8.43;;;11.00;99.90;;;;;;5030337;28;20189;-68
2021/04/29 02:54:22;;;;;;;12.65;7.85;;;11.00;99.90;;;;;;5030505;28;20275;-69
2021/04/29 02:56:49;;;;;;;10.77;8.43;;;11.00;99.90;;;;;;5030399;28;20217;-68
2021/04/29 02:59:17;;;;;;;17.15;7.65;;;11.00;99.90;;;;;;5031120;28;20213;-69
2021/04/29 03:01:45;;;;;;;10.98;8.00;;;11.10;99.90;;;;;;5030371;28;20193;-70
2021/04/29 03:04:12;;;;;;;13.80;7.68;;;11.10;99.90;;;;;;5030853;28;20255;-68
2021/04/29 03:06:39;;;;;;;10.98;8.88;;;11.10;99.90;;;;;;5031437;28;20193;-68
2021/04/29 03:09:07;;;;;;;12.02;7.50;;;11.10;99.90;;;;;;5031027;28;20212;-68
2021/04/29 03:11:35;;;;;;;14.00;8.63;;;11.10;99.90;;;;;;5029472;28;20276;-69
2021/04/29 03:14:03;;;;;;;15.02;7.20;;;11.10;99.90;;;;;;5030987;28;20213;-69
2021/04/29 03:16:31;;;;;;;8.77;6.95;;;11.00;99.90;;;;;;5031252;28;20249;-69
2021/04/29 03:18:58;;;;;;;12.15;8.40;;;10.90;99.90;;;;;;5030553;28;20201;-69
2021/04/29 03:21:26;;;;;;;9.05;7.82;;;10.90;99.90;;;;;;5030892;28;20204;-68
2021/04/29 03:23:53;;;;;;;12.48;9.80;;;10.90;99.90;;;;;;5030265;28;20541;-68
2021/04/29 03:26:21;;;;;;;12.90;6.90;;;11.00;99.90;;;;;;5030286;28;20204;-68
2021/04/29 03:28:49;;;;;;;13.50;7.20;;;11.00;99.90;;;;;;5044295;28;20216;-69
2021/04/29 03:31:16;;;;;;;8.35;7.55;;;10.90;99.90;;;;;;5038130;28;20670;-69
2021/04/29 03:33:44;;;;;;;12.60;9.50;;;10.80;99.90;;;;;;5033606;28;20209;-68
2021/04/29 03:36:11;;;;;;;12.30;8.57;;;10.60;99.90;;;;;;5032294;28;20569;-69
2021/04/29 03:38:38;;;;;;;11.65;9.60;;;10.50;99.90;;;;;;5031079;28;20209;-69
2021/04/29 03:41:06;;;;;;;9.30;8.30;;;10.40;99.90;;;;;;5032388;28;20613;-68
2021/04/29 03:43:34;;;;;;;12.10;9.55;;;10.40;99.90;;;;;;5033857;28;20182;-67
2021/04/29 03:46:01;;;;;;;11.27;8.00;;;10.30;99.90;;;;;;5034030;28;20211;-68
2021/04/29 03:48:29;;;;;;;12.00;8.25;;;10.40;99.90;;;;;;5033932;28;20209;-70
2021/04/29 03:50:56;;;;;;;14.98;9.80;;;10.50;99.90;;;;;;5033408;28;20281;-68
2021/04/29 03:53:23;;;;;;;14.75;9.55;;;10.50;99.90;;;;;;5031917;28;20421;-68
2021/04/29 03:55:51;;;;;;;10.55;9.18;;;10.60;99.90;;;;;;5032893;28;20189;-67
2021/04/29 03:58:18;;;;;;;11.00;9.40;;;10.70;99.90;;;;;;5032543;28;20260;-68
2021/04/29 04:00:46;;;;;;;15.82;10.43;;;10.70;99.90;;;;;;5033355;28;20231;-68
2021/04/29 04:03:13;;;;;;;13.27;8.63;;;10.70;99.90;;;;;;5031729;28;20284;-68
2021/04/29 04:05:40;;;;;;;13.48;8.95;;;10.70;99.90;;;;;;5032809;28;20191;-68
2021/04/29 04:08:07;;;;;;;12.32;9.40;;;10.70;99.90;;;;;;5035853;28;20292;-69
2021/04/29 04:10:34;;;;;;;13.48;9.20;;;10.60;99.90;;;;;;5053228;28;20216;-69
2021/04/29 04:13:01;;;;;;;11.88;8.43;;;10.70;99.90;;;;;;5045840;28;20574;-70
2021/04/29 04:15:29;;;;;;;12.32;9.40;;;10.60;99.90;;;;;;5033297;28;20189;-69
2021/04/29 04:17:57;;;;;;;12.90;8.40;;;10.40;99.90;;;;;;5033666;28;20283;-69
2021/04/29 04:20:24;;;;;;;15.95;10.27;;;10.40;99.90;;;;;;5033438;28;20255;-69
2021/04/29 04:22:51;;;;;;;12.30;9.20;;;10.30;99.90;;;;;;5033946;28;20193;-69
2021/04/29 04:25:18;;;;;;;15.45;9.52;;;10.20;99.90;;;;;;5034431;28;20223;-68
2021/04/29 04:27:46;;;;;;;12.75;9.32;;;10.20;99.90;;;;;;5035303;28;20224;-68
2021/04/29 04:30:14;;;;;;;13.63;10.80;;;10.20;99.90;;;;;;5033988;28;20193;-68
2021/04/29 04:32:42;;;;;;;11.80;8.90;;;10.30;99.90;;;;;;5032978;28;20213;-67
2021/04/29 04:35:12;;;;;;;14.68;9.77;;;10.30;99.90;;;;;;5032782;28;20201;-69
2021/04/29 04:37:39;;;;;;;14.63;9.50;;;10.30;99.90;;;;;;5033424;28;20213;-70
2021/04/29 04:40:08;;;;;;;10.32;8.15;;;10.10;99.90;;;;;;5033175;28;20630;-68
2021/04/29 04:42:35;;;;;;;11.85;10.30;;;10.00;99.90;;;;;;5031309;28;20200;-68
2021/04/29 04:45:03;;;;;;;12.70;9.82;;;9.90;99.90;;;;;;5035287;28;20236;-69
2021/04/29 04:47:30;;;;;;;16.98;10.15;;;9.70;99.90;;;;;;5034694;28;20201;-69
2021/04/29 04:49:57;;;;;;;17.75;12.80;;;9.70;99.90;;;;;;5034482;28;20193;-70
2021/04/29 04:52:26;;;;;;;13.32;11.65;;;9.70;99.90;;;;;;5033993;28;20817;-68
2021/04/29 04:54:53;;;;;;;16.00;11.80;;;9.90;99.90;;;;;;5049978;28;20208;-69
2021/04/29 04:57:21;;;;;;;10.18;9.10;;;10.10;99.90;;;;;;5034405;28;20189;-69
2021/04/29 04:59:48;;;;;;;14.90;11.05;;;9.90;99.90;;;;;;5034165;28;20193;-69
2021/04/29 05:02:16;;;;;;;18.98;10.93;;;9.70;99.90;;;;;;5033393;28;20217;-69
2021/04/29 05:04:43;;;;;;;13.95;10.77;;;9.60;99.90;;;;;;5032870;28;20189;-71
2021/04/29 05:07:11;;;;;;;11.35;8.82;;;9.70;99.90;;;;;;5032382;28;20355;-68
2021/04/29 05:09:41;;;;;;;13.02;9.93;;;9.60;99.90;;;;;;5034208;28;20246;-69
2021/04/29 05:12:09;;;;;;;13.40;9.23;;;9.70;99.90;;;;;;5032285;28;20312;-70
2021/04/29 05:14:39;;;;;;;12.77;10.90;;;9.80;99.90;;;;;;5034407;28;20209;-68
2021/04/29 05:17:06;;;;;;;13.10;10.80;;;9.80;99.90;;;;;;5033271;28;20204;-71
2021/04/29 05:19:35;;;;;;;10.95;8.32;;;10.00;99.90;;;;;;5032804;28;20248;-69
2021/04/29 05:22:02;;;;;;;13.32;9.77;;;10.10;99.90;;;;;;5032145;28;20276;-69
2021/04/29 05:24:30;;;;;;;14.10;11.05;;;10.30;99.90;;;;;;5032087;28;20181;-69
2021/04/29 05:26:58;;;;;;;10.65;9.05;;;10.40;99.90;;;;;;5029979;28;20205;-67
2021/04/29 05:29:27;;;;;;;12.73;10.00;;;10.50;99.90;;;;;;5042626;28;20213;-68
2021/04/29 05:31:54;;;;;;;17.17;10.05;;;10.60;99.90;;;;;;5032295;28;20210;-68
2021/04/29 05:34:22;;;;;;;13.20;10.00;;;10.60;99.90;;;;;;5030977;28;20205;-68
2021/04/29 05:36:49;;;;;;;13.90;9.95;;;10.70;99.90;;;;;;5032132;28;20197;-68
2021/04/29 05:39:16;;;;;;;14.45;9.93;;;10.80;99.90;;;;;;5042558;28;20208;-69
2021/04/29 05:41:44;;;;;;;13.57;10.70;;;10.80;99.90;;;;;;5050502;28;20184;-67
2021/04/29 05:44:12;;;;;;;14.25;10.10;;;10.90;99.90;;;;;;5051011;28;20208;-70
2021/04/29 05:46:41;;;;;;;10.88;9.52;;;11.20;99.90;;;;;;5051072;28;20177;-68
2021/04/29 05:49:08;;;;;;;10.68;8.98;;;11.30;99.90;;;;;;5050395;28;20232;-68
2021/04/29 05:51:36;;;;;;;13.07;9.53;;;11.50;99.90;;;;;;5050236;28;20189;-69
2021/04/29 05:54:03;;;;;;;9.05;8.15;;;11.70;99.90;;;;;;5037014;28;20467;-69
2021/04/29 05:56:30;;;;;;;12.07;9.53;;;11.80;99.90;;;;;;5050332;28;20200;-69
2021/04/29 05:58:58;;;;;;;9.33;7.53;;;11.90;99.90;;;;;;5051069;28;20451;-69
2021/04/29 06:01:26;;;;;;;12.17;9.23;;;12.00;99.90;;;;;;5050241;28;20419;-69
2021/04/29 06:03:54;;;;;;;13.13;9.52;;;11.80;99.90;;;;;;5050627;28;20423;-69
2021/04/29 06:06:21;;;;;;;15.50;8.63;;;11.80;99.90;;;;;;5050374;28;20191;-69
2021/04/29 06:08:50;;;;;;;10.40;9.37;;;11.90;99.90;;;;;;5050745;28;20447;-68
2021/04/29 06:11:18;;;;;;;9.07;7.30;;;12.00;99.90;;;;;;5050052;28;20415;-68
2021/04/29 06:13:45;;;;;;;10.00;8.10;;;12.00;99.90;;;;;;5050956;28;20469;-69
2021/04/29 06:16:13;;;;;;;9.73;7.03;;;12.00;99.90;;;;;;5051175;28;20824;-67
2021/04/29 06:18:42;;;;;;;8.63;7.78;;;12.00;99.90;;;;;;5049627;28;20494;-69
2021/04/29 06:21:09;;;;;;;10.20;8.07;;;11.90;99.90;;;;;;5040337;28;20268;-68
2021/04/29 06:23:37;;;;;;;16.48;11.77;;;12.00;99.90;;;;;;5034212;28;21231;-68
2021/04/29 06:26:04;;;;;;;12.77;9.82;;;12.10;99.90;;;;;;5044044;28;20619;-68
2021/04/29 06:28:32;;;;;;;9.35;8.27;;;12.00;99.90;;;;;;5049404;28;20679;-69
2021/04/29 06:30:59;;;;;;;8.50;7.20;;;12.00;99.90;;;;;;5037986;28;20580;-68
2021/04/29 06:33:26;;;;;;;10.27;6.80;;;11.90;99.90;;;;;;5029253;28;20472;-68
2021/04/29 06:35:55;;;;;;;12.50;7.67;;;11.90;99.90;;;;;;5101661;23;20856;-69
2021/04/29 06:38:23;;;;;;;8.60;7.80;;;11.90;99.90;;;;;;5031852;28;20452;-67
2021/04/29 06:40:50;;;;;;;9.77;8.77;;;11.80;99.90;;;;;;5030613;28;20424;-66
2021/04/29 06:43:17;;;;;;;8.47;7.43;;;11.90;99.90;;;;;;5030660;28;20421;-70
2021/04/29 06:45:46;;;;;;;14.07;9.40;;;11.90;99.90;;;;;;5028954;28;20506;-68
2021/04/29 06:48:14;;;;;;;11.18;9.20;;;11.90;99.90;;;;;;5030214;28;20755;-71
2021/04/29 06:50:41;;;;;;;10.00;8.17;;;11.90;99.90;;;;;;5029964;28;20186;-66
2021/04/29 06:53:09;;;;;;;10.02;7.40;;;11.80;99.90;;;;;;5029655;28;20451;-72
2021/04/29 06:55:36;;;;;;;8.90;8.00;;;11.60;99.90;;;;;;5029906;28;20676;-67
2021/04/29 06:58:04;;;;;;;11.75;7.70;;;11.70;99.90;;;;;;5030089;28;20213;-66
2021/04/29 07:00:32;;;;;;;11.77;8.43;;;11.70;99.90;;;;;;5029945;28;20236;-69
2021/04/29 07:02:59;;;;;;;15.35;9.43;;;11.70;99.90;;;;;;5030249;28;20178;-66
2021/04/29 07:05:27;;;;;;;10.03;8.70;;;11.70;99.90;;;;;;5029910;28;20197;-67
2021/04/29 07:07:55;;;;;;;8.30;7.50;;;11.60;99.90;;;;;;5030085;28;20856;-68
2021/04/29 07:10:25;;;;;;;20.93;8.27;;;11.50;99.90;;;;;;5028462;28;20403;-67
2021/04/29 07:13:08;;;;;;;9.60;8.37;;;11.50;99.90;;;;;;5029855;28;20534;-66
2021/04/29 07:15:35;;;;;;;9.43;8.30;;;11.40;99.90;;;;;;5033657;28;20419;-65
2021/04/29 07:18:04;;;;;;;9.50;7.97;;;11.40;99.90;;;;;;5033688;28;20209;-68
2021/04/29 07:20:34;;;;;;;11.07;8.18;;;11.30;99.90;;;;;;5032353;28;20222;-65
2021/04/29 07:23:02;;;;;;;9.18;8.27;;;11.20;99.90;;;;;;5032233;28;20231;-66
2021/04/29 07:25:30;;;;;;;9.40;7.97;;;11.40;99.90;;;;;;5032970;28;20194;-68
2021/04/29 07:27:57;;;;;;;13.93;7.85;;;11.30;99.90;;;;;;5033416;28;20224;-70
2021/04/29 07:30:24;;;;;;;9.30;8.40;;;11.30;99.90;;;;;;5031933;28;20194;-69
2021/04/29 07:32:51;;;;;;;10.93;8.07;;;11.30;99.90;;;;;;5033587;28;20264;-66
2021/04/29 07:35:21;;;;;;;12.32;8.38;;;11.20;99.90;;;;;;5032927;28;20205;-67
2021/04/29 07:37:49;;;;;;;11.45;8.35;;;11.10;99.90;;;;;;5033084;28;20271;-67
2021/04/29 07:40:17;;;;;;;9.77;8.80;;;11.20;99.90;;;;;;5032608;28;20255;-66
2021/04/29 07:42:45;;;;;;;11.27;8.55;;;11.10;99.90;;;;;;5030747;28;20193;-66
2021/04/29 07:45:13;;;;;;;11.35;9.35;;;11.00;99.90;;;;;;5012880;28;20170;-67
2021/04/29 07:47:40;;;;;;;12.30;9.55;;;11.00;99.90;;;;;;5012829;28;20572;-67
2021/04/29 07:50:09;;;;;;;8.82;7.85;;;11.20;99.90;;;;;;5013100;28;20186;-68
2021/04/29 07:52:36;;;;;;;11.40;8.45;;;11.20;99.90;;;;;;5012868;28;20190;-67
2021/04/29 07:55:04;;;;;;;10.35;8.80;;;11.20;99.90;;;;;;5013032;28;20683;-66
2021/04/29 07:57:31;;;;;;;8.32;7.63;;;11.10;99.90;;;;;;5013604;28;20248;-68
2021/04/29 07:59:59;;;;;;;17.20;7.63;;;11.10;99.90;;;;;;5030723;28;20564;-66
2021/04/29 08:02:27;;;;;;;8.63;7.15;;;10.90;99.90;;;;;;5033029;28;20205;-66
2021/04/29 08:04:54;;;;;;;13.57;7.63;;;10.80;99.90;;;;;;5032726;28;20203;-66
2021/04/29 08:07:25;;;;;;;12.68;8.60;;;10.70;99.90;;;;;;5032569;28;20201;-67
2021/04/29 08:09:53;;;;;;;10.93;8.40;;;10.50;99.90;;;;;;5035258;28;20193;-66
2021/04/29 08:12:20;;;;;;;9.80;8.88;;;10.50;99.90;;;;;;5047222;28;20196;-69
2021/04/29 08:14:48;;;;;;;12.57;6.90;;;10.50;99.90;;;;;;5032903;28;20785;-70
2021/04/29 08:17:16;;;;;;;9.73;8.73;;;10.60;99.90;;;;;;5031308;28;20304;-68
2021/04/29 08:19:44;;;;;;;8.93;7.45;;;10.50;99.90;;;;;;5032733;28;20193;-66
2021/04/29 08:22:12;;;;;;;9.13;8.15;;;10.50;99.90;;;;;;5032360;28;20196;-71
2021/04/29 08:24:40;;;;;;;11.93;8.40;;;10.50;99.90;;;;;;5031970;28;20177;-72
2021/04/29 08:27:07;;;;;;;11.70;9.30;;;10.40;99.90;;;;;;5032066;28;20198;-66
2021/04/29 08:29:35;;;;;;;13.65;10.23;;;10.40;99.90;;;;;;5032377;28;20547;-67
2021/04/29 08:32:03;;;;;;;11.05;9.10;;;10.50;99.90;;;;;;5032507;28;20174;-66
2021/04/29 08:34:32;;;;;;;8.85;8.02;;;10.30;99.90;;;;;;5033028;28;20773;-68
2021/04/29 08:36:59;;;;;;;10.32;7.65;;;10.30;99.90;;;;;;5033532;28;20599;-66
2021/04/29 08:39:27;;;;;;;12.02;9.52;;;10.30;99.90;;;;;;5032389;28;20209;-68
2021/04/29 08:41:54;;;;;;;11.55;9.07;;;10.10;99.90;;;;;;5032052;28;20296;-69
2021/04/29 08:44:22;;;;;;;11.20;8.90;;;10.20;99.90;;;;;;5033653;28;20170;-69
2021/04/29 08:46:50;;;;;;;13.38;9.50;;;10.20;99.90;;;;;;5033752;28;20177;-68
2021/04/29 08:49:22;;;;;;;10.48;8.23;;;10.10;99.90;;;;;;5034453;28;20209;-69
2021/04/29 08:51:51;;;;;;;12.70;11.40;;;10.10;99.90;;;;;;5034828;28;20717;-68
2021/04/29 08:54:19;;;;;;;10.43;8.75;;;10.20;99.90;;;;;;5035322;28;20205;-68
2021/04/29 08:56:47;;;;;;;11.10;8.10;;;10.30;99.90;;;;;;5036831;28;20188;-66
2021/04/29 08:59:14;;;;;;;9.35;8.35;;;10.40;99.90;;;;;;5035228;28;20206;-66
2021/04/29 09:01:43;;;;;;;12.15;9.52;;;10.30;99.90;;;;;;5032736;28;20189;-67
2021/04/29 09:04:12;;;;;;;13.93;11.02;;;10.30;99.90;;;;;;5033490;28;20196;-65
2021/04/29 09:06:40;;;;;;;9.27;8.02;;;10.50;99.90;;;;;;5033594;28;20205;-67
2021/04/29 09:09:09;;;;;;;10.98;9.93;;;10.50;99.90;;;;;;5033024;28;20241;-66
2021/04/29 09:11:47;;;;;;;12.93;11.18;;;10.70;99.90;;;;;;5032517;28;20213;-66
2021/04/29 09:14:35;;;;;;;10.82;9.73;;;10.80;99.90;;;;;;5033716;28;20213;-66
2021/04/29 09:17:03;;;;;;;10.98;9.85;;;10.90;99.90;;;;;;5034198;28;20244;-67
2021/04/29 09:19:35;;;;;;;14.93;10.10;;;11.10;99.90;;;;;;5033756;28;20217;-66
2021/04/29 09:22:04;;;;;;;12.68;10.55;;;11.00;99.90;;;;;;5033368;28;20184;-66
2021/04/29 09:24:34;;;;;;;14.38;11.68;;;11.00;99.90;;;;;;5033340;28;20192;-67
2021/04/29 09:27:12;;;;;;;12.30;9.90;;;11.20;99.90;;;;;;5031768;28;20217;-69
2021/04/29 09:29:50;;;;;;;13.10;11.38;;;11.30;99.90;;;;;;5031640;28;20284;-67
2021/04/29 09:32:29;;;;;;;15.20;10.90;;;11.40;99.90;;;;;;5031409;28;20193;-69
2021/04/29 09:34:58;;;;;;;12.20;10.65;;;11.40;99.90;;;;;;5031699;28;20217;-67
2021/04/29 09:37:29;;;;;;;11.52;10.20;;;11.50;99.90;;;;;;5031119;28;20236;-67
2021/04/29 09:40:03;;;;;;;15.73;10.82;;;11.50;99.90;;;;;;5031560;28;20199;-67
2021/04/29 09:42:32;;;;;;;14.40;10.75;;;11.50;99.90;;;;;;5031468;28;20654;-64
2021/04/29 09:45:00;;;;;;;14.45;10.35;;;11.40;99.90;;;;;;5031265;28;20180;-68
2021/04/29 09:47:28;;;;;;;13.73;10.05;;;11.60;99.90;;;;;;5031763;28;20185;-69
2021/04/29 09:49:55;;;;;;;11.93;10.33;;;11.80;99.90;;;;;;5031258;28;20185;-66
2021/04/29 09:52:24;;;;;;;12.70;11.30;;;12.10;99.90;;;;;;5030795;28;20424;-66
2021/04/29 09:54:52;;;;;;;15.40;10.83;;;12.30;99.90;;;;;;5031116;28;20459;-66
2021/04/29 09:57:24;;;;;;;11.63;9.63;;;12.60;99.90;;;;;;5031559;28;20420;-68
2021/04/29 09:59:56;;;;;;;17.53;11.90;;;12.90;99.90;;;;;;5031432;28;20431;-66
2021/04/29 10:02:24;;;;;;;13.17;11.23;;;13.30;99.90;;;;;;5045231;28;20402;-65
2021/04/29 10:04:53;;;;;;;11.47;10.37;;;13.80;99.90;;;;;;5049217;28;20423;-66
2021/04/29 10:07:22;;;;;;;13.70;10.03;;;14.50;99.90;;;;;;5049766;28;20531;-65
2021/04/29 10:09:50;;;;;;;12.10;9.93;;;15.20;99.90;;;;;;5050258;28;20426;-65
2021/04/29 10:12:19;;;;;;;12.43;10.60;;;15.30;99.90;;;;;;5050087;28;20499;-66
2021/04/29 10:14:48;;;;;;;11.90;10.30;;;15.30;99.90;;;;;;5050017;28;20456;-71
2021/04/29 10:17:17;;;;;;;11.93;9.43;;;15.50;99.90;;;;;;5049867;28;20887;-69
2021/04/29 10:19:46;;;;;;;12.17;10.33;;;16.00;99.90;;;;;;5050406;28;20441;-68
2021/04/29 10:22:13;;;;;;;12.10;10.90;;;15.80;99.90;;;;;;5049455;28;20536;-67
2021/04/29 10:24:42;;;;;;;16.83;11.40;;;15.40;99.90;;;;;;5049840;28;20427;-66
2021/04/29 10:27:12;;;;;;;19.00;13.97;;;15.30;99.90;;;;;;5050208;28;20957;-69
2021/04/29 10:29:40;;;;;;;16.73;13.63;;;15.30;99.90;;;;;;5050500;28;20430;-69
2021/04/29 10:32:12;;;;;;;14.90;12.30;;;15.00;99.90;;;;;;5049726;28;20757;-68
2021/04/29 10:34:44;;;;;;;14.83;13.30;;;14.60;99.90;;;;;;5049769;28;20974;-67
2021/04/29 10:37:19;;;;;;;14.70;12.73;;;14.40;99.90;;;;;;5049755;28;20736;-67
2021/04/29 10:39:54;;;;;;;14.80;12.77;;;14.20;99.90;;;;;;5049009;28;20415;-68
2021/04/29 10:42:27;;;;;;;15.33;13.13;;;14.00;99.90;;;;;;5030667;28;20522;-67
2021/04/29 10:45:06;;;;;;;18.53;12.37;;;13.90;99.90;;;;;;5028417;28;20468;-67
2021/04/29 10:47:36;;;;;;;17.07;12.53;;;14.20;99.90;;;;;;5033213;28;20460;-67
2021/04/29 10:50:09;;;;;;;15.77;12.60;;;14.40;99.90;;;;;;5033318;28;20404;-65
2021/04/29 10:52:47;;;;;;;16.90;12.87;;;14.90;99.90;;;;;;5033913;28;20591;-67
2021/04/29 10:55:25;;;;;;;16.13;12.57;;;15.40;99.90;;;;;;5033893;28;20467;-67
2021/04/29 10:57:53;;;;;;;18.63;13.50;;;16.00;99.90;;;;;;5033823;28;20798;-68
2021/04/29 11:00:21;;;;;;;15.07;11.87;;;16.20;99.90;;;;;;5033988;28;20783;-69
2021/04/29 11:02:59;;;;;;;16.00;12.50;;;16.80;99.90;;;;;;5032154;28;20443;-68
2021/04/29 11:05:27;;;;;;;16.30;14.40;;;17.30;99.90;;;;;;5033330;28;20471;-69
2021/04/29 11:07:55;;;;;;;18.57;13.47;;;17.30;99.90;;;;;;5033722;28;20415;-68
2021/04/29 11:10:26;;;;;;;18.10;15.10;;;17.20;99.90;;;;;;5036259;28;20512;-67
2021/04/29 11:12:55;;;;;;;16.33;12.80;;;17.00;99.90;;;;;;5053345;28;20484;-69
2021/04/29 11:15:28;;;;;;;17.13;15.30;;;16.30;99.90;;;;;;5053619;28;21044;-67
2021/04/29 11:18:05;;;;;;;15.00;12.67;;;15.80;99.90;;;;;;5053733;28;20866;-69
2021/04/29 11:20:43;;;;;;;16.80;14.10;;;15.50;99.90;;;;;;5053414;28;20434;-66
2021/04/29 11:23:11;;;;;;;16.73;13.13;;;15.70;99.90;;;;;;5053184;28;20418;-68
2021/04/29 11:25:38;;;;;;;15.13;11.77;;;15.80;99.90;;;;;;5032979;28;20623;-69
2021/04/29 11:28:06;;;;;;;16.90;13.93;;;16.00;99.90;;;;;;5046016;28;20479;-69
2021/04/29 11:30:35;;;;;;;15.87;13.10;;;16.20;99.90;;;;;;5032058;28;20443;-67
2021/04/29 11:33:05;;;;;;;14.30;12.73;;;16.30;99.90;;;;;;5032877;28;20472;-69
2021/04/29 11:35:35;;;;;;;23.00;16.13;;;16.30;99.90;;;;;;5032763;28;20521;-69
2021/04/29 11:38:06;;;;;;;20.93;15.23;;;16.30;99.90;;;;;;5034196;28;20471;-67
2021/04/29 11:40:34;;;;;;;18.00;15.90;;;16.30;99.90;;;;;;5033305;28;20434;-68
2021/04/29 11:43:05;;;;;;;17.13;15.13;;;16.50;99.90;;;;;;5031714;28;20427;-68
2021/04/29 11:45:33;;;;;;;20.30;15.50;;;16.70;99.90;;;;;;5033422;28;20424;-68
2021/04/29 11:48:04;;;;;;;18.57;14.63;;;16.90;99.90;;;;;;5033052;28;20442;-68
2021/04/29 11:50:33;;;;;;;17.47;14.70;;;17.30;99.90;;;;;;5032759;28;20453;-68
2021/04/29 11:53:05;;;;;;;14.60;12.77;;;17.30;99.90;;;;;;5031992;28;20432;-68
2021/04/29 11:55:33;;;;;;;17.80;13.80;;;17.20;99.90;;;;;;5032193;28;20469;-69
2021/04/29 11:58:03;;;;;;;14.53;12.83;;;17.20;99.90;;;;;;5032810;28;20422;-68
2021/04/29 12:00:32;;;;;;;16.90;13.03;;;16.90;99.90;;;;;;5032052;28;20430;-68
2021/04/29 12:03:00;;;;;;;13.63;12.07;;;16.80;99.90;;;;;;5032603;28;20391;-68
2021/04/29 12:05:32;;;;;;;14.03;12.57;;;16.90;99.90;;;;;;5032755;28;20440;-66
2021/04/29 12:07:59;;;;;;;17.13;13.93;;;17.20;99.90;;;;;;5033339;28;20458;-66
2021/04/29 12:10:40;;;;;;;14.37;11.37;;;17.40;99.90;;;;;;5035749;28;20402;-69
2021/04/29 12:13:07;;;;;;;13.10;11.50;;;17.50;99.90;;;;;;5052771;28;20392;-68
2021/04/29 12:15:34;;;;;;;14.30;11.87;;;17.50;99.90;;;;;;5043066;28;20442;-69
2021/04/29 12:18:03;;;;;;;14.30;12.87;;;17.30;99.90;;;;;;5032454;28;20444;-68
2021/04/29 12:20:32;;;;;;;14.13;12.30;;;17.60;99.90;;;;;;5032705;28;20459;-68
2021/04/29 12:22:59;;;;;;;16.77;14.80;;;17.30;99.90;;;;;;5032789;28;20395;-69
2021/04/29 12:25:26;;;;;;;14.50;11.73;;;17.10;99.90;;;;;;5040691;28;20424;-69
2021/04/29 12:27:54;;;;;;;11.40;10.00;;;17.30;99.90;;;;;;5043678;28;20435;-67
2021/04/29 12:30:27;;;;;;;12.47;11.37;;;17.70;99.90;;;;;;5032796;28;20421;-69
2021/04/29 12:32:54;;;;;;;14.07;12.00;;;18.30;99.90;;;;;;5032180;28;20395;-67
2021/04/29 12:35:31;;;;;;;15.30;12.07;;;18.60;99.90;;;;;;5012915;28;20469;-68
2021/04/29 12:37:59;;;;;;;12.90;10.93;;;18.10;99.90;;;;;;5012496;28;20444;-68
2021/04/29 12:40:30;;;;;;;12.07;10.77;;;18.40;99.90;;;;;;5024121;28;20933;-68
2021/04/29 12:43:14;;;;;;;15.30;11.40;;;18.60;99.90;;;;;;5052242;28;20397;-69